sensor_id;sensor_type;location;lat;lon;timestamp;P1;durP1;ratioP1;P2;durP2;ratioP2
18206;SDS011;9229;52.354;20.886;2023-04-02T00:02:31;9.82;;;6.95;;
18206;SDS011;9229;52.354;20.886;2023-04-02T00:07:55;10.43;;;7.47;;
18206;SDS011;9229;52.354;20.886;2023-04-02T00:13:23;10.40;;;7.60;;
18206;SDS011;9229;52.354;20.886;2023-04-02T00:18:33;11.60;;;7.50;;
18206;SDS011;9229;52.354;20.886;2023-04-02T00:23:52;10.27;;;6.95;;
18206;SDS011;9229;52.354;20.886;2023-04-02T00:29:09;12.00;;;6.93;;
18206;SDS011;9229;52.354;20.886;2023-04-02T00:34:16;12.05;;;6.80;;
18206;SDS011;9229;52.354;20.886;2023-04-02T00:39:28;9.95;;;6.63;;
18206;SDS011;9229;52.354;20.886;2023-04-02T00:50:17;8.35;;;6.00;;
18206;SDS011;9229;52.354;20.886;2023-04-02T00:55:26;6.18;;;5.50;;
18206;SDS011;9229;52.354;20.886;2023-04-02T01:00:37;5.88;;;5.28;;
18206;SDS011;9229;52.354;20.886;2023-04-02T01:05:42;7.65;;;5.85;;
18206;SDS011;9229;52.354;20.886;2023-04-02T01:11:01;6.03;;;5.43;;
18206;SDS011;9229;52.354;20.886;2023-04-02T01:16:31;4.97;;;4.50;;
18206;SDS011;9229;52.354;20.886;2023-04-02T01:21:45;6.07;;;5.25;;
18206;SDS011;9229;52.354;20.886;2023-04-02T01:27:04;6.47;;;5.10;;
18206;SDS011;9229;52.354;20.886;2023-04-02T01:32:19;5.47;;;4.85;;
18206;SDS011;9229;52.354;20.886;2023-04-02T01:37:32;4.70;;;4.20;;
18206;SDS011;9229;52.354;20.886;2023-04-02T01:42:48;5.93;;;5.28;;
18206;SDS011;9229;52.354;20.886;2023-04-02T01:48:03;6.40;;;5.15;;
18206;SDS011;9229;52.354;20.886;2023-04-02T01:53:23;8.43;;;5.25;;
18206;SDS011;9229;52.354;20.886;2023-04-02T01:58:40;7.45;;;4.60;;
18206;SDS011;9229;52.354;20.886;2023-04-02T02:04:12;5.97;;;5.38;;
18206;SDS011;9229;52.354;20.886;2023-04-02T02:14:58;5.32;;;4.57;;
18206;SDS011;9229;52.354;20.886;2023-04-02T02:20:40;5.80;;;5.22;;
18206;SDS011;9229;52.354;20.886;2023-04-02T02:26:11;5.70;;;5.20;;
18206;SDS011;9229;52.354;20.886;2023-04-02T02:31:20;8.82;;;6.47;;
18206;SDS011;9229;52.354;20.886;2023-04-02T02:42:37;7.57;;;5.78;;
18206;SDS011;9229;52.354;20.886;2023-04-02T02:53:36;9.80;;;7.38;;
18206;SDS011;9229;52.354;20.886;2023-04-02T02:58:51;12.88;;;8.20;;
18206;SDS011;9229;52.354;20.886;2023-04-02T03:03:59;10.98;;;7.53;;
18206;SDS011;9229;52.354;20.886;2023-04-02T03:09:26;9.65;;;7.32;;
18206;SDS011;9229;52.354;20.886;2023-04-02T03:14:47;10.85;;;7.85;;
18206;SDS011;9229;52.354;20.886;2023-04-02T03:20:14;10.40;;;7.72;;
18206;SDS011;9229;52.354;20.886;2023-04-02T03:25:34;13.25;;;8.77;;
18206;SDS011;9229;52.354;20.886;2023-04-02T03:30:43;12.73;;;8.27;;
18206;SDS011;9229;52.354;20.886;2023-04-02T03:36:17;14.05;;;8.27;;
18206;SDS011;9229;52.354;20.886;2023-04-02T03:41:36;13.23;;;9.02;;
18206;SDS011;9229;52.354;20.886;2023-04-02T03:47:00;16.20;;;9.32;;
18206;SDS011;9229;52.354;20.886;2023-04-02T03:52:24;14.13;;;8.55;;
18206;SDS011;9229;52.354;20.886;2023-04-02T03:57:42;15.38;;;9.43;;
18206;SDS011;9229;52.354;20.886;2023-04-02T04:03:24;16.63;;;8.95;;
18206;SDS011;9229;52.354;20.886;2023-04-02T04:08:49;14.35;;;8.73;;
18206;SDS011;9229;52.354;20.886;2023-04-02T04:26:00;17.33;;;10.50;;
18206;SDS011;9229;52.354;20.886;2023-04-02T04:34:23;19.80;;;11.18;;
18206;SDS011;9229;52.354;20.886;2023-04-02T04:37:59;22.55;;;11.55;;
18206;SDS011;9229;52.354;20.886;2023-04-02T04:43:53;19.77;;;11.90;;
18206;SDS011;9229;52.354;20.886;2023-04-02T04:49:19;21.13;;;11.70;;
18206;SDS011;9229;52.354;20.886;2023-04-02T04:54:38;21.95;;;12.07;;
18206;SDS011;9229;52.354;20.886;2023-04-02T04:59:54;25.98;;;12.25;;
18206;SDS011;9229;52.354;20.886;2023-04-02T05:05:28;22.25;;;11.40;;
18206;SDS011;9229;52.354;20.886;2023-04-02T05:10:45;22.98;;;11.60;;
18206;SDS011;9229;52.354;20.886;2023-04-02T05:16:02;22.73;;;12.13;;
18206;SDS011;9229;52.354;20.886;2023-04-02T05:21:15;25.17;;;12.23;;
18206;SDS011;9229;52.354;20.886;2023-04-02T05:32:14;18.00;;;10.88;;
18206;SDS011;9229;52.354;20.886;2023-04-02T05:37:29;22.27;;;11.25;;
18206;SDS011;9229;52.354;20.886;2023-04-02T05:42:57;17.55;;;9.60;;
18206;SDS011;9229;52.354;20.886;2023-04-02T05:48:39;19.80;;;10.35;;
18206;SDS011;9229;52.354;20.886;2023-04-02T05:54:36;19.75;;;11.15;;
18206;SDS011;9229;52.354;20.886;2023-04-02T06:06:40;14.32;;;8.18;;
18206;SDS011;9229;52.354;20.886;2023-04-02T06:12:38;14.23;;;8.30;;
18206;SDS011;9229;52.354;20.886;2023-04-02T06:17:47;13.60;;;8.20;;
18206;SDS011;9229;52.354;20.886;2023-04-02T06:23:08;14.65;;;7.88;;
18206;SDS011;9229;52.354;20.886;2023-04-02T06:28:43;13.35;;;8.00;;
18206;SDS011;9229;52.354;20.886;2023-04-02T06:47:27;10.00;;;6.72;;
18206;SDS011;9229;52.354;20.886;2023-04-02T06:52:35;8.52;;;6.90;;
18206;SDS011;9229;52.354;20.886;2023-04-02T06:57:50;11.82;;;7.55;;
18206;SDS011;9229;52.354;20.886;2023-04-02T07:03:01;10.13;;;6.78;;
18206;SDS011;9229;52.354;20.886;2023-04-02T07:08:08;11.85;;;8.25;;
18206;SDS011;9229;52.354;20.886;2023-04-02T07:13:12;12.55;;;7.40;;
18206;SDS011;9229;52.354;20.886;2023-04-02T07:18:24;9.60;;;7.28;;
18206;SDS011;9229;52.354;20.886;2023-04-02T07:23:29;11.43;;;7.40;;
18206;SDS011;9229;52.354;20.886;2023-04-02T07:28:31;11.23;;;7.05;;
18206;SDS011;9229;52.354;20.886;2023-04-02T07:33:36;14.07;;;6.95;;
18206;SDS011;9229;52.354;20.886;2023-04-02T07:38:44;11.43;;;6.82;;
18206;SDS011;9229;52.354;20.886;2023-04-02T07:44:23;10.77;;;6.88;;
18206;SDS011;9229;52.354;20.886;2023-04-02T07:49:32;8.38;;;6.57;;
18206;SDS011;9229;52.354;20.886;2023-04-02T07:54:39;12.13;;;7.22;;
18206;SDS011;9229;52.354;20.886;2023-04-02T07:59:49;11.18;;;6.85;;
18206;SDS011;9229;52.354;20.886;2023-04-02T08:04:57;8.48;;;6.15;;
18206;SDS011;9229;52.354;20.886;2023-04-02T08:10:07;10.13;;;6.80;;
18206;SDS011;9229;52.354;20.886;2023-04-02T08:15:13;10.35;;;7.18;;
18206;SDS011;9229;52.354;20.886;2023-04-02T08:20:17;10.07;;;6.18;;
18206;SDS011;9229;52.354;20.886;2023-04-02T08:25:22;7.97;;;6.18;;
18206;SDS011;9229;52.354;20.886;2023-04-02T08:30:23;9.43;;;6.70;;
18206;SDS011;9229;52.354;20.886;2023-04-02T08:35:27;9.55;;;5.80;;
18206;SDS011;9229;52.354;20.886;2023-04-02T08:40:33;8.93;;;5.93;;
18206;SDS011;9229;52.354;20.886;2023-04-02T08:45:41;7.53;;;5.93;;
18206;SDS011;9229;52.354;20.886;2023-04-02T08:50:57;6.53;;;5.45;;
18206;SDS011;9229;52.354;20.886;2023-04-02T08:56:02;7.15;;;5.50;;
18206;SDS011;9229;52.354;20.886;2023-04-02T09:01:19;5.57;;;5.05;;
18206;SDS011;9229;52.354;20.886;2023-04-02T09:06:28;5.40;;;4.88;;
18206;SDS011;9229;52.354;20.886;2023-04-02T09:11:32;5.97;;;4.90;;
18206;SDS011;9229;52.354;20.886;2023-04-02T09:16:42;5.43;;;4.93;;
18206;SDS011;9229;52.354;20.886;2023-04-02T09:21:53;5.20;;;4.30;;
18206;SDS011;9229;52.354;20.886;2023-04-02T09:27:01;6.78;;;4.65;;
18206;SDS011;9229;52.354;20.886;2023-04-02T09:32:05;4.30;;;4.00;;
18206;SDS011;9229;52.354;20.886;2023-04-02T09:37:17;3.95;;;3.75;;
18206;SDS011;9229;52.354;20.886;2023-04-02T09:42:30;6.60;;;4.63;;
18206;SDS011;9229;52.354;20.886;2023-04-02T09:47:35;4.22;;;3.83;;
18206;SDS011;9229;52.354;20.886;2023-04-02T09:52:38;5.93;;;4.20;;
18206;SDS011;9229;52.354;20.886;2023-04-02T09:57:44;5.07;;;4.57;;
18206;SDS011;9229;52.354;20.886;2023-04-02T10:02:58;7.65;;;4.78;;
18206;SDS011;9229;52.354;20.886;2023-04-02T10:08:07;5.30;;;3.80;;
18206;SDS011;9229;52.354;20.886;2023-04-02T10:13:20;5.05;;;3.97;;
18206;SDS011;9229;52.354;20.886;2023-04-02T10:18:36;4.90;;;4.50;;
18206;SDS011;9229;52.354;20.886;2023-04-02T10:23:46;4.13;;;3.83;;
18206;SDS011;9229;52.354;20.886;2023-04-02T10:28:59;4.68;;;4.35;;
18206;SDS011;9229;52.354;20.886;2023-04-02T10:34:18;6.20;;;4.93;;
18206;SDS011;9229;52.354;20.886;2023-04-02T10:39:26;7.68;;;5.85;;
18206;SDS011;9229;52.354;20.886;2023-04-02T10:44:35;9.45;;;5.53;;
18206;SDS011;9229;52.354;20.886;2023-04-02T10:49:45;7.78;;;5.97;;
18206;SDS011;9229;52.354;20.886;2023-04-02T10:54:58;5.75;;;5.18;;
18206;SDS011;9229;52.354;20.886;2023-04-02T11:00:06;7.60;;;5.47;;
18206;SDS011;9229;52.354;20.886;2023-04-02T11:05:22;9.57;;;6.13;;
18206;SDS011;9229;52.354;20.886;2023-04-02T11:10:37;11.43;;;6.90;;
18206;SDS011;9229;52.354;20.886;2023-04-02T11:15:52;11.02;;;7.28;;
18206;SDS011;9229;52.354;20.886;2023-04-02T11:20:55;12.70;;;7.68;;
18206;SDS011;9229;52.354;20.886;2023-04-02T11:31:48;12.52;;;7.85;;
18206;SDS011;9229;52.354;20.886;2023-04-02T11:36:59;12.98;;;8.18;;
18206;SDS011;9229;52.354;20.886;2023-04-02T11:42:13;8.38;;;7.03;;
18206;SDS011;9229;52.354;20.886;2023-04-02T12:13:19;8.60;;;6.22;;
18206;SDS011;9229;52.354;20.886;2023-04-02T12:19:17;7.35;;;6.10;;
18206;SDS011;9229;52.354;20.886;2023-04-02T12:24:22;8.73;;;5.85;;
18206;SDS011;9229;52.354;20.886;2023-04-02T12:40:29;5.53;;;5.03;;
18206;SDS011;9229;52.354;20.886;2023-04-02T12:45:39;6.22;;;5.50;;
18206;SDS011;9229;52.354;20.886;2023-04-02T12:50:44;6.05;;;5.45;;
18206;SDS011;9229;52.354;20.886;2023-04-02T12:55:50;7.05;;;6.30;;
18206;SDS011;9229;52.354;20.886;2023-04-02T13:01:14;5.55;;;5.05;;
18206;SDS011;9229;52.354;20.886;2023-04-02T13:06:20;6.13;;;5.57;;
18206;SDS011;9229;52.354;20.886;2023-04-02T13:11:34;6.43;;;5.70;;
18206;SDS011;9229;52.354;20.886;2023-04-02T13:16:50;6.75;;;5.75;;
18206;SDS011;9229;52.354;20.886;2023-04-02T13:21:55;8.57;;;6.00;;
18206;SDS011;9229;52.354;20.886;2023-04-02T13:27:07;7.72;;;5.68;;
18206;SDS011;9229;52.354;20.886;2023-04-02T13:32:29;7.85;;;5.57;;
18206;SDS011;9229;52.354;20.886;2023-04-02T13:37:32;7.53;;;5.35;;
18206;SDS011;9229;52.354;20.886;2023-04-02T13:42:37;7.57;;;5.28;;
18206;SDS011;9229;52.354;20.886;2023-04-02T13:47:43;8.40;;;5.72;;
18206;SDS011;9229;52.354;20.886;2023-04-02T13:52:47;6.18;;;5.50;;
18206;SDS011;9229;52.354;20.886;2023-04-02T13:57:59;6.20;;;5.60;;
18206;SDS011;9229;52.354;20.886;2023-04-02T14:03:04;6.40;;;5.25;;
18206;SDS011;9229;52.354;20.886;2023-04-02T14:08:10;6.43;;;5.13;;
18206;SDS011;9229;52.354;20.886;2023-04-02T14:13:29;6.68;;;4.90;;
18206;SDS011;9229;52.354;20.886;2023-04-02T14:18:49;5.07;;;4.35;;
18206;SDS011;9229;52.354;20.886;2023-04-02T14:24:17;6.97;;;5.63;;
18206;SDS011;9229;52.354;20.886;2023-04-02T14:29:40;5.25;;;4.75;;
18206;SDS011;9229;52.354;20.886;2023-04-02T14:34:51;5.38;;;4.82;;
18206;SDS011;9229;52.354;20.886;2023-04-02T14:40:08;7.25;;;5.25;;
18206;SDS011;9229;52.354;20.886;2023-04-02T14:45:17;6.25;;;5.05;;
18206;SDS011;9229;52.354;20.886;2023-04-02T14:50:39;8.02;;;5.45;;
18206;SDS011;9229;52.354;20.886;2023-04-02T14:55:42;11.73;;;6.00;;
18206;SDS011;9229;52.354;20.886;2023-04-02T15:00:50;5.75;;;5.15;;
18206;SDS011;9229;52.354;20.886;2023-04-02T15:06:07;7.47;;;5.57;;
18206;SDS011;9229;52.354;20.886;2023-04-02T15:11:13;5.90;;;5.25;;
18206;SDS011;9229;52.354;20.886;2023-04-02T15:16:21;8.38;;;5.38;;
18206;SDS011;9229;52.354;20.886;2023-04-02T15:21:33;6.50;;;4.82;;
18206;SDS011;9229;52.354;20.886;2023-04-02T15:26:48;7.97;;;5.30;;
18206;SDS011;9229;52.354;20.886;2023-04-02T15:31:59;6.95;;;5.40;;
18206;SDS011;9229;52.354;20.886;2023-04-02T15:37:13;7.43;;;5.57;;
18206;SDS011;9229;52.354;20.886;2023-04-02T15:42:23;7.97;;;5.60;;
18206;SDS011;9229;52.354;20.886;2023-04-02T15:47:33;5.68;;;4.40;;
18206;SDS011;9229;52.354;20.886;2023-04-02T15:52:55;5.85;;;5.03;;
18206;SDS011;9229;52.354;20.886;2023-04-02T15:58:28;5.65;;;4.45;;
18206;SDS011;9229;52.354;20.886;2023-04-02T16:09:43;6.93;;;5.18;;
18206;SDS011;9229;52.354;20.886;2023-04-02T16:15:02;5.68;;;4.78;;
18206;SDS011;9229;52.354;20.886;2023-04-02T16:20:18;4.70;;;4.35;;
18206;SDS011;9229;52.354;20.886;2023-04-02T16:25:25;6.43;;;4.78;;
18206;SDS011;9229;52.354;20.886;2023-04-02T16:30:39;5.90;;;5.38;;
18206;SDS011;9229;52.354;20.886;2023-04-02T16:35:53;5.55;;;4.70;;
18206;SDS011;9229;52.354;20.886;2023-04-02T16:41:07;5.72;;;4.20;;
18206;SDS011;9229;52.354;20.886;2023-04-02T16:46:21;5.35;;;4.85;;
18206;SDS011;9229;52.354;20.886;2023-04-02T16:51:31;6.50;;;5.43;;
18206;SDS011;9229;52.354;20.886;2023-04-02T16:56:52;6.13;;;5.47;;
18206;SDS011;9229;52.354;20.886;2023-04-02T17:02:19;10.60;;;6.35;;
18206;SDS011;9229;52.354;20.886;2023-04-02T17:08:13;5.45;;;5.05;;
18206;SDS011;9229;52.354;20.886;2023-04-02T17:32:25;7.53;;;6.15;;
18206;SDS011;9229;52.354;20.886;2023-04-02T17:38:20;6.28;;;5.63;;
18206;SDS011;9229;52.354;20.886;2023-04-02T17:49:37;6.25;;;5.00;;
18206;SDS011;9229;52.354;20.886;2023-04-02T17:55:03;13.27;;;6.10;;
18206;SDS011;9229;52.354;20.886;2023-04-02T18:05:50;6.65;;;5.20;;
18206;SDS011;9229;52.354;20.886;2023-04-02T18:11:08;8.05;;;5.72;;
18206;SDS011;9229;52.354;20.886;2023-04-02T18:16:31;5.75;;;5.07;;
18206;SDS011;9229;52.354;20.886;2023-04-02T18:28:00;11.85;;;5.97;;
18206;SDS011;9229;52.354;20.886;2023-04-02T18:38:36;13.43;;;7.10;;
18206;SDS011;9229;52.354;20.886;2023-04-02T18:43:46;15.23;;;7.38;;
18206;SDS011;9229;52.354;20.886;2023-04-02T18:49:06;11.45;;;6.47;;
18206;SDS011;9229;52.354;20.886;2023-04-02T18:54:24;13.65;;;7.20;;
18206;SDS011;9229;52.354;20.886;2023-04-02T18:59:32;7.25;;;6.13;;
18206;SDS011;9229;52.354;20.886;2023-04-02T19:04:50;6.45;;;4.65;;
18206;SDS011;9229;52.354;20.886;2023-04-02T19:10:03;10.00;;;5.70;;
18206;SDS011;9229;52.354;20.886;2023-04-02T19:15:13;8.55;;;5.43;;
18206;SDS011;9229;52.354;20.886;2023-04-02T19:20:23;5.57;;;4.97;;
18206;SDS011;9229;52.354;20.886;2023-04-02T19:25:43;6.45;;;4.85;;
18206;SDS011;9229;52.354;20.886;2023-04-02T19:31:13;5.05;;;4.60;;
18206;SDS011;9229;52.354;20.886;2023-04-02T19:36:38;6.30;;;4.93;;
18206;SDS011;9229;52.354;20.886;2023-04-02T19:41:47;9.18;;;4.90;;
18206;SDS011;9229;52.354;20.886;2023-04-02T19:46:53;7.95;;;5.35;;
18206;SDS011;9229;52.354;20.886;2023-04-02T19:51:58;6.22;;;4.75;;
18206;SDS011;9229;52.354;20.886;2023-04-02T19:57:01;6.72;;;4.35;;
18206;SDS011;9229;52.354;20.886;2023-04-02T20:02:03;7.35;;;5.00;;
18206;SDS011;9229;52.354;20.886;2023-04-02T20:07:10;9.27;;;4.57;;
18206;SDS011;9229;52.354;20.886;2023-04-02T20:12:13;8.18;;;4.68;;
18206;SDS011;9229;52.354;20.886;2023-04-02T20:17:17;6.78;;;4.18;;
18206;SDS011;9229;52.354;20.886;2023-04-02T20:22:21;6.13;;;4.22;;
18206;SDS011;9229;52.354;20.886;2023-04-02T20:27:39;4.25;;;3.80;;
18206;SDS011;9229;52.354;20.886;2023-04-02T20:32:53;5.30;;;3.92;;
18206;SDS011;9229;52.354;20.886;2023-04-02T20:38:05;5.00;;;3.45;;
18206;SDS011;9229;52.354;20.886;2023-04-02T20:43:46;5.22;;;3.47;;
18206;SDS011;9229;52.354;20.886;2023-04-02T20:48:54;5.30;;;3.17;;
18206;SDS011;9229;52.354;20.886;2023-04-02T20:54:06;5.50;;;3.35;;
18206;SDS011;9229;52.354;20.886;2023-04-02T20:59:18;5.53;;;3.25;;
18206;SDS011;9229;52.354;20.886;2023-04-02T21:04:26;3.65;;;3.05;;
18206;SDS011;9229;52.354;20.886;2023-04-02T21:09:33;2.65;;;2.45;;
18206;SDS011;9229;52.354;20.886;2023-04-02T21:14:39;5.22;;;2.40;;
18206;SDS011;9229;52.354;20.886;2023-04-02T21:19:47;5.05;;;2.80;;
18206;SDS011;9229;52.354;20.886;2023-04-02T21:24:56;3.38;;;3.08;;
18206;SDS011;9229;52.354;20.886;2023-04-02T21:30:03;2.50;;;2.35;;
18206;SDS011;9229;52.354;20.886;2023-04-02T21:35:19;3.67;;;2.15;;
18206;SDS011;9229;52.354;20.886;2023-04-02T21:40:34;2.20;;;2.10;;
18206;SDS011;9229;52.354;20.886;2023-04-02T21:45:44;3.70;;;2.47;;
18206;SDS011;9229;52.354;20.886;2023-04-02T21:50:53;2.50;;;2.30;;
18206;SDS011;9229;52.354;20.886;2023-04-02T22:02:12;2.13;;;2.03;;
18206;SDS011;9229;52.354;20.886;2023-04-02T22:07:28;2.35;;;2.15;;
18206;SDS011;9229;52.354;20.886;2023-04-02T22:12:36;4.25;;;2.10;;
18206;SDS011;9229;52.354;20.886;2023-04-02T22:17:43;2.30;;;2.15;;
18206;SDS011;9229;52.354;20.886;2023-04-02T22:22:51;2.40;;;2.05;;
18206;SDS011;9229;52.354;20.886;2023-04-02T22:27:55;2.00;;;1.90;;
18206;SDS011;9229;52.354;20.886;2023-04-02T22:32:58;2.15;;;2.00;;
18206;SDS011;9229;52.354;20.886;2023-04-02T22:38:02;1.90;;;1.80;;
18206;SDS011;9229;52.354;20.886;2023-04-02T22:43:07;2.10;;;2.00;;
18206;SDS011;9229;52.354;20.886;2023-04-02T22:48:29;2.33;;;2.20;;
18206;SDS011;9229;52.354;20.886;2023-04-02T22:53:36;2.20;;;2.10;;
18206;SDS011;9229;52.354;20.886;2023-04-02T22:58:51;1.85;;;1.85;;
18206;SDS011;9229;52.354;20.886;2023-04-02T23:04:05;2.05;;;1.95;;
18206;SDS011;9229;52.354;20.886;2023-04-02T23:09:08;2.10;;;2.00;;
18206;SDS011;9229;52.354;20.886;2023-04-02T23:14:18;4.13;;;2.10;;
18206;SDS011;9229;52.354;20.886;2023-04-02T23:19:20;2.00;;;1.90;;
18206;SDS011;9229;52.354;20.886;2023-04-02T23:24:22;5.03;;;2.13;;
18206;SDS011;9229;52.354;20.886;2023-04-02T23:29:31;3.78;;;2.22;;
18206;SDS011;9229;52.354;20.886;2023-04-02T23:34:36;2.00;;;1.90;;
18206;SDS011;9229;52.354;20.886;2023-04-02T23:39:41;2.22;;;2.10;;
18206;SDS011;9229;52.354;20.886;2023-04-02T23:44:51;2.25;;;2.10;;
18206;SDS011;9229;52.354;20.886;2023-04-02T23:49:54;6.15;;;1.95;;
18206;SDS011;9229;52.354;20.886;2023-04-02T23:54:56;2.85;;;2.10;;
